Time;durP1;ratioP1;P1;durP2;ratioP2;P2;SDS_P1;SDS_P2;PMS_P1;PMS_P2;Temp;Humidity;BMP_temperature;BMP_pressure;BME280_temperature;BME280_humidity;BME280_pressure;Samples;Min_cycle;Max_cycle;Signal;HPM_P1;HPM_P2
2022/08/04 00:00:01;;;;;;;14.95;5.25;;;24.20;62.00;;;;;;9179455;19;20014;-68
2022/08/04 00:03:27;;;;;;;;;;;24.10;62.00;;;;;;9182027;19;20022;-69
2022/08/04 00:06:41;;;;;;;9.48;4.50;;;24.10;61.50;;;;;;9178580;19;19923;-67
2022/08/04 00:09:57;;;;;;;16.83;5.55;;;24.10;61.80;;;;;;9173465;19;20357;-68
2022/08/04 00:13:05;;;;;;;22.50;4.93;;;24.00;61.90;;;;;;9178422;19;20097;-68
2022/08/04 00:16:24;;;;;;;17.80;5.20;;;23.90;61.90;;;;;;9181042;19;20014;-67
2022/08/04 00:19:45;;;;;;;14.15;6.10;;;23.90;62.00;;;;;;9177167;19;20034;-68
2022/08/04 00:22:54;;;;;;;10.63;4.90;;;23.90;62.20;;;;;;9178581;19;20011;-68
2022/08/04 00:26:08;;;;;;;9.98;5.10;;;23.80;62.30;;;;;;9178491;19;20018;-67
2022/08/04 00:29:16;;;;;;;6.60;5.20;;;23.80;62.60;;;;;;9179959;19;20014;-68
2022/08/04 00:32:21;;;;;;;13.38;5.68;;;23.70;62.40;;;;;;9180361;19;20007;-67
2022/08/04 00:35:41;;;;;;;16.30;5.57;;;23.70;62.50;;;;;;9179952;19;20010;-71
2022/08/04 00:38:46;;;;;;;11.10;5.28;;;23.70;62.70;;;;;;9176775;19;20484;-67
2022/08/04 00:42:15;;;;;;;9.07;5.47;;;23.60;62.70;;;;;;9184886;19;20014;-68
2022/08/04 00:45:51;;;;;;;13.75;5.90;;;23.60;62.90;;;;;;9185541;19;20089;-67
2022/08/04 00:49:58;;;;;;;12.10;5.03;;;23.60;63.10;;;;;;9185211;19;20022;-68
2022/08/04 00:53:08;;;;;;;13.80;5.60;;;23.50;63.00;;;;;;9183854;19;20014;-67
2022/08/04 00:56:46;;;;;;;11.43;5.60;;;23.50;63.00;;;;;;9185629;19;20021;-67
2022/08/04 01:00:12;;;;;;;16.48;5.45;;;23.50;63.20;;;;;;9181559;19;20492;-69
2022/08/04 01:03:34;;;;;;;8.85;4.85;;;23.40;63.20;;;;;;9185085;19;20025;-66
2022/08/04 01:06:51;;;;;;;12.10;5.07;;;23.40;63.30;;;;;;9185159;19;20045;-67
2022/08/04 01:10:08;;;;;;;9.40;5.18;;;23.40;63.40;;;;;;9181730;19;20082;-68
2022/08/04 01:13:52;;;;;;;9.43;4.80;;;23.30;63.40;;;;;;9186646;19;20408;-67
2022/08/04 01:17:16;;;;;;;20.42;4.95;;;23.30;63.60;;;;;;9183637;19;20014;-68
2022/08/04 01:20:26;;;;;;;10.15;5.10;;;23.30;63.60;;;;;;9183421;19;20022;-67
2022/08/04 01:24:07;;;;;;;14.88;5.55;;;23.20;63.40;;;;;;9186790;19;20064;-68
2022/08/04 01:27:27;;;;;;;8.80;4.88;;;23.20;63.70;;;;;;9184462;19;20010;-67
2022/08/04 01:30:43;;;;;;;12.55;5.53;;;23.20;63.70;;;;;;9184904;19;20018;-68
2022/08/04 01:33:56;;;;;;;15.00;5.60;;;23.20;63.80;;;;;;9186511;19;20010;-68
2022/08/04 01:37:20;;;;;;;12.40;5.45;;;23.20;63.80;;;;;;9183825;19;20082;-67
2022/08/04 01:40:29;;;;;;;12.98;5.68;;;23.10;64.50;;;;;;9180994;19;20025;-68
2022/08/04 01:43:41;;;;;;;11.60;5.15;;;23.10;63.80;;;;;;9185840;19;20019;-70
2022/08/04 01:46:53;;;;;;;9.77;5.15;;;23.10;63.90;;;;;;9186370;19;20014;-68
2022/08/04 01:50:06;;;;;;;10.57;4.72;;;23.00;64.00;;;;;;9182062;19;20017;-67
2022/08/04 01:53:12;;;;;;;8.73;4.90;;;23.00;64.10;;;;;;9185308;19;20105;-67
2022/08/04 01:56:18;;;;;;;12.50;4.63;;;23.00;64.10;;;;;;9184926;19;20023;-68
2022/08/04 01:59:26;;;;;;;13.40;4.78;;;23.00;64.10;;;;;;9182104;19;20017;-67
2022/08/04 02:02:37;;;;;;;12.63;4.55;;;23.00;64.10;;;;;;9183271;19;20364;-67
2022/08/04 02:05:46;;;;;;;8.38;4.97;;;22.90;64.30;;;;;;9182701;19;20021;-68
2022/08/04 02:09:18;;;;;;;14.52;4.90;;;22.90;64.30;;;;;;9178197;19;20018;-67
2022/08/04 02:12:33;;;;;;;13.23;5.38;;;22.90;64.30;;;;;;9184456;19;20033;-67
2022/08/04 02:15:56;;;;;;;10.27;4.65;;;22.80;64.40;;;;;;9183975;19;20022;-66
2022/08/04 02:19:17;;;;;;;11.43;4.10;;;22.80;64.50;;;;;;9184108;19;20006;-67
2022/08/04 02:22:26;;;;;;;10.32;4.70;;;22.80;64.60;;;;;;9182727;19;20007;-68
2022/08/04 02:25:38;;;;;;;16.08;5.07;;;22.70;64.50;;;;;;9182607;19;20769;-67
2022/08/04 02:28:49;;;;;;;9.80;5.55;;;22.70;64.50;;;;;;9182694;19;20022;-67
2022/08/04 02:31:59;;;;;;;10.13;4.53;;;22.70;64.50;;;;;;9184013;19;20026;-67
2022/08/04 02:35:10;;;;;;;11.13;4.47;;;22.70;64.60;;;;;;9181746;19;20039;-68
2022/08/04 02:38:25;;;;;;;10.38;4.40;;;22.60;64.70;;;;;;9182100;19;20443;-67
2022/08/04 02:41:32;;;;;;;11.77;4.40;;;22.60;64.70;;;;;;9182510;19;20014;-70
2022/08/04 02:44:41;;;;;;;9.82;4.07;;;22.60;64.80;;;;;;9181824;19;20021;-68
2022/08/04 02:47:55;;;;;;;7.85;3.88;;;22.60;64.80;;;;;;9182896;19;20368;-67
2022/08/04 02:51:29;;;;;;;9.95;3.53;;;22.60;64.90;;;;;;9181282;19;20027;-67
2022/08/04 02:54:41;;;;;;;6.25;3.40;;;22.50;64.90;;;;;;9182494;19;20018;-68
2022/08/04 02:57:49;;;;;;;7.95;4.05;;;22.50;64.90;;;;;;9181503;19;20669;-68
2022/08/04 03:00:54;;;;;;;14.95;3.70;;;22.50;64.90;;;;;;9178393;19;20026;-68
2022/08/04 03:04:27;;;;;;;11.07;4.35;;;22.40;64.90;;;;;;9179268;19;20884;-68
2022/08/04 03:08:07;;;;;;;10.07;3.30;;;22.40;65.20;;;;;;9182528;19;20045;-68
2022/08/04 03:11:40;;;;;;;11.93;3.42;;;22.40;65.20;;;;;;9177756;19;20052;-67
2022/08/04 03:15:34;;;;;;;8.23;2.95;;;22.40;65.80;;;;;;9182188;19;20018;-68
2022/08/04 03:19:28;;;;;;;8.70;3.10;;;22.40;65.20;;;;;;9178811;19;20487;-67
2022/08/04 03:23:05;;;;;;;9.18;2.58;;;22.40;65.20;;;;;;9182207;19;20780;-68
2022/08/04 03:26:45;;;;;;;8.60;3.10;;;22.40;65.30;;;;;;9180105;19;20026;-68
2022/08/04 03:30:08;;;;;;;5.65;2.80;;;22.40;65.20;;;;;;9182027;19;20470;-67
2022/08/04 03:33:41;;;;;;;6.53;2.60;;;22.30;65.20;;;;;;9181549;19;20018;-67
2022/08/04 03:37:20;;;;;;;8.00;2.83;;;22.30;65.30;;;;;;9181607;19;20937;-68
2022/08/04 03:40:47;;;;;;;6.30;2.40;;;22.30;65.30;;;;;;9178163;19;20017;-68
2022/08/04 03:44:37;;;;;;;9.02;3.50;;;22.30;65.30;;;;;;9180595;19;20021;-68
2022/08/04 03:48:15;;;;;;;8.30;2.83;;;22.30;65.40;;;;;;9178735;19;20027;-67
2022/08/04 03:55:27;;;;;;;11.93;2.50;;;22.20;65.40;;;;;;9177574;19;20365;-67
2022/08/04 03:58:54;;;;;;;8.82;2.80;;;22.20;65.40;;;;;;9178407;19;20014;-68
2022/08/04 04:02:25;;;;;;;11.40;2.70;;;22.20;65.40;;;;;;9178061;19;20049;-70
2022/08/04 04:06:11;;;;;;;10.32;2.58;;;22.20;65.50;;;;;;9177463;19;20393;-68
2022/08/04 04:10:00;;;;;;;7.72;2.83;;;22.10;65.50;;;;;;9173856;19;20039;-67
2022/08/04 04:13:38;;;;;;;12.80;2.97;;;22.10;65.60;;;;;;9175116;19;20022;-69
2022/08/04 04:17:10;;;;;;;13.85;3.28;;;22.10;65.60;;;;;;9180287;19;20022;-68
2022/08/04 04:20:43;;;;;;;12.57;2.50;;;22.10;65.70;;;;;;9177054;19;20017;-67
2022/08/04 04:24:19;;;;;;;8.75;2.83;;;22.00;65.70;;;;;;9178542;19;20352;-67
2022/08/04 04:27:47;;;;;;;10.02;2.30;;;22.00;65.80;;;;;;9177610;19;20017;-67
2022/08/04 04:31:04;;;;;;;12.80;2.53;;;22.00;65.80;;;;;;9178549;19;20006;-68
2022/08/04 04:34:26;;;;;;;14.30;2.75;;;22.00;65.90;;;;;;9177404;19;20022;-68
2022/08/04 04:37:53;;;;;;;12.45;2.67;;;22.00;66.00;;;;;;9177684;19;20018;-68
2022/08/04 04:41:13;;;;;;;13.32;2.40;;;22.00;66.10;;;;;;9177553;19;20019;-67
2022/08/04 04:44:47;;;;;;;8.13;2.75;;;22.00;66.10;;;;;;9178180;19;20015;-68
2022/08/04 04:47:59;;;;;;;12.35;2.70;;;22.00;66.10;;;;;;9178135;19;20366;-67
2022/08/04 04:51:35;;;;;;;13.15;3.25;;;22.00;66.10;;;;;;9177045;19;20049;-67
2022/08/04 04:54:52;;;;;;;8.05;2.55;;;22.00;66.30;;;;;;9178643;19;20022;-67
2022/08/04 04:58:01;;;;;;;10.40;2.72;;;21.90;66.10;;;;;;9177170;19;20026;-67
2022/08/04 05:01:36;;;;;;;13.57;2.90;;;22.00;66.30;;;;;;9176757;19;20349;-67
2022/08/04 05:05:10;;;;;;;12.90;2.90;;;22.00;66.50;;;;;;9175275;19;20518;-68
2022/08/04 05:08:37;;;;;;;;;;;22.00;66.50;;;;;;9176833;19;20491;-68
2022/08/04 05:12:27;;;;;;;12.20;2.88;;;22.00;66.00;;;;;;9172643;19;19960;-67
2022/08/04 05:15:57;;;;;;;11.85;3.33;;;22.00;66.30;;;;;;9175672;19;20025;-67
2022/08/04 05:19:14;;;;;;;16.83;2.85;;;22.00;66.20;;;;;;9179036;19;20022;-67
2022/08/04 05:22:25;;;;;;;10.55;3.35;;;22.00;66.40;;;;;;9173498;19;20018;-67
2022/08/04 05:25:40;;;;;;;10.75;3.47;;;22.10;66.50;;;;;;9179146;19;20010;-67
2022/08/04 05:28:55;;;;;;;10.48;3.08;;;22.10;66.60;;;;;;9184943;19;20112;-67
2022/08/04 05:32:05;;;;;;;13.48;2.85;;;22.10;66.50;;;;;;9186692;19;20010;-67
2022/08/04 05:35:16;;;;;;;9.07;2.88;;;22.20;66.70;;;;;;9184639;19;20015;-67
2022/08/04 05:38:46;;;;;;;11.73;2.70;;;22.20;66.70;;;;;;9186537;19;20060;-67
2022/08/04 05:41:55;;;;;;;14.40;3.10;;;22.20;66.60;;;;;;9183467;19;20018;-67
2022/08/04 05:45:14;;;;;;;13.38;2.92;;;22.30;66.90;;;;;;9181070;19;20081;-67
2022/08/04 05:48:22;;;;;;;15.68;2.53;;;22.30;66.90;;;;;;9181976;19;20505;-67
2022/08/04 05:51:29;;;;;;;16.50;2.80;;;22.30;66.90;;;;;;9185299;19;20015;-68
2022/08/04 05:54:37;;;;;;;10.63;3.17;;;22.40;67.00;;;;;;9184046;19;20030;-67
2022/08/04 05:57:47;;;;;;;7.53;3.00;;;22.40;67.10;;;;;;9183289;19;20029;-67
2022/08/04 06:00:58;;;;;;;13.63;3.40;;;22.50;67.20;;;;;;9183872;19;20022;-67
2022/08/04 06:04:04;;;;;;;14.63;4.05;;;22.60;67.20;;;;;;9185454;19;20079;-66
2022/08/04 06:07:15;;;;;;;13.50;2.65;;;22.70;67.30;;;;;;9183946;19;20015;-68
2022/08/04 06:10:21;;;;;;;9.38;2.65;;;22.80;67.30;;;;;;9178072;19;20399;-67
2022/08/04 06:13:44;;;;;;;18.33;3.33;;;22.90;67.30;;;;;;9185105;19;20476;-67
2022/08/04 06:16:58;;;;;;;14.43;2.88;;;23.10;67.60;;;;;;9182178;19;20522;-67
2022/08/04 06:20:07;;;;;;;9.85;3.03;;;23.30;67.40;;;;;;9182623;19;20021;-67
2022/08/04 06:23:31;;;;;;;11.48;2.55;;;23.40;67.30;;;;;;9183845;19;20026;-66
2022/08/04 06:26:39;;;;;;;14.30;3.00;;;23.60;67.30;;;;;;9184280;19;20461;-66
2022/08/04 06:29:50;;;;;;;8.30;1.98;;;23.80;67.30;;;;;;9182313;19;20011;-67
2022/08/04 06:32:59;;;;;;;10.70;3.13;;;24.00;67.10;;;;;;9182561;19;20056;-69
2022/08/04 06:36:09;;;;;;;8.57;2.42;;;24.20;67.00;;;;;;9180582;19;20018;-68
2022/08/04 06:39:17;;;;;;;11.75;2.88;;;24.40;66.90;;;;;;9183930;19;20018;-67
2022/08/04 06:42:24;;;;;;;18.80;3.15;;;24.60;66.70;;;;;;9180379;19;20019;-67
2022/08/04 06:45:37;;;;;;;14.20;2.90;;;24.80;66.60;;;;;;9179452;19;20026;-68
2022/08/04 06:48:44;;;;;;;10.45;3.60;;;24.90;66.40;;;;;;9182122;19;20019;-68
2022/08/04 06:51:49;;;;;;;7.25;3.80;;;25.00;66.10;;;;;;9183102;19;20011;-68
2022/08/04 06:54:58;;;;;;;13.90;3.90;;;25.10;66.00;;;;;;9180981;19;20669;-67
2022/08/04 06:58:04;;;;;;;13.48;4.45;;;25.20;65.90;;;;;;9181063;19;20014;-67
2022/08/04 07:01:21;;;;;;;13.05;4.20;;;25.30;65.90;;;;;;9180348;19;20014;-67
2022/08/04 07:04:26;;;;;;;20.00;5.03;;;25.40;65.90;;;;;;9180661;19;20018;-68
2022/08/04 07:07:31;;;;;;;17.98;5.22;;;25.40;65.90;;;;;;9182346;19;20036;-66
2022/08/04 07:10:43;;;;;;;10.07;5.15;;;25.50;65.80;;;;;;9176439;19;20029;-67
2022/08/04 07:13:48;;;;;;;11.90;4.90;;;25.60;65.80;;;;;;9181731;19;20955;-67
2022/08/04 07:16:58;;;;;;;14.40;5.28;;;25.80;65.80;;;;;;9181094;19;20026;-68
2022/08/04 07:20:04;;;;;;;12.65;5.30;;;26.00;65.90;;;;;;9178099;19;20014;-68
2022/08/04 07:23:11;;;;;;;13.95;5.15;;;26.10;65.80;;;;;;9172491;19;20078;-68
2022/08/04 07:26:18;;;;;;;18.00;6.00;;;26.30;65.80;;;;;;9177325;19;20022;-69
2022/08/04 07:29:23;;;;;;;22.30;5.45;;;26.50;65.60;;;;;;9175505;19;20654;-68
2022/08/04 07:32:31;;;;;;;16.40;5.20;;;26.60;65.30;;;;;;9176812;19;20023;-68
2022/08/04 07:35:38;;;;;;;15.82;5.78;;;26.90;65.20;;;;;;9176449;19;20015;-68
2022/08/04 07:39:06;;;;;;;19.52;5.00;;;27.10;65.00;;;;;;9174617;19;20014;-70
2022/08/04 07:42:12;;;;;;;15.70;4.97;;;27.30;64.80;;;;;;9173681;19;20787;-69
2022/08/04 07:45:20;;;;;;;14.27;4.88;;;27.40;64.50;;;;;;9174138;19;20018;-69
2022/08/04 07:48:28;;;;;;;14.07;5.10;;;27.60;64.20;;;;;;9174943;19;20574;-68
2022/08/04 07:51:35;;;;;;;14.27;4.65;;;27.70;64.00;;;;;;9175974;19;20025;-68
2022/08/04 07:54:42;;;;;;;15.90;4.55;;;27.80;63.80;;;;;;9175433;19;20654;-67
2022/08/04 07:57:47;;;;;;;9.35;4.20;;;27.90;63.60;;;;;;9167829;19;20015;-67
2022/08/04 08:00:53;;;;;;;9.80;4.22;;;28.00;63.40;;;;;;9170537;19;20018;-68
2022/08/04 08:04:02;;;;;;;20.23;4.60;;;28.00;63.30;;;;;;9173449;19;20661;-68
2022/08/04 08:07:08;;;;;;;8.95;4.00;;;28.10;63.10;;;;;;9172021;19;20023;-67
2022/08/04 08:10:16;;;;;;;12.45;4.28;;;28.20;63.20;;;;;;9167953;19;20015;-68
2022/08/04 08:13:23;;;;;;;15.80;4.00;;;28.20;63.00;;;;;;9170369;19;20022;-69
2022/08/04 08:16:32;;;;;;;13.40;4.57;;;28.30;63.00;;;;;;9168776;19;20018;-68
2022/08/04 08:19:40;;;;;;;13.32;3.83;;;28.40;62.80;;;;;;9167315;19;20018;-67
2022/08/04 08:22:51;;;;;;;;;;;28.50;62.60;;;;;;9170432;19;20805;-68
2022/08/04 08:25:58;;;;;;;9.30;3.90;;;28.70;62.70;;;;;;9172859;19;20320;-66
2022/08/04 08:29:05;;;;;;;9.13;3.33;;;28.80;62.60;;;;;;9174453;19;20014;-68
2022/08/04 08:32:14;;;;;;;17.40;4.07;;;28.90;62.40;;;;;;9168592;19;20372;-68
2022/08/04 08:35:26;;;;;;;8.48;3.75;;;29.10;62.20;;;;;;9169860;19;20025;-69
2022/08/04 08:38:47;;;;;;;8.97;3.60;;;29.30;62.00;;;;;;9170211;19;20022;-67
2022/08/04 08:42:33;;;;;;;9.07;3.20;;;29.50;61.70;;;;;;9166541;19;20018;-68
2022/08/04 08:46:12;;;;;;;14.90;3.65;;;29.70;61.30;;;;;;9167253;19;20015;-68
2022/08/04 08:49:50;;;;;;;13.27;3.33;;;30.00;61.10;;;;;;9174258;19;20011;-68
2022/08/04 08:53:39;;;;;;;13.73;2.80;;;30.20;60.90;;;;;;9168860;19;20507;-68
2022/08/04 08:57:04;;;;;;;15.40;2.50;;;30.50;60.60;;;;;;9170529;19;20010;-68
2022/08/04 09:00:18;;;;;;;8.27;2.40;;;30.70;60.20;;;;;;9171770;19;20250;-68
2022/08/04 09:03:51;;;;;;;14.15;3.05;;;31.00;59.90;;;;;;9174510;19;20111;-67
2022/08/04 09:07:11;;;;;;;7.68;2.83;;;31.10;59.40;;;;;;9178659;19;20022;-68
2022/08/04 09:10:28;;;;;;;12.52;3.03;;;31.30;59.20;;;;;;9174528;19;20500;-68
2022/08/04 09:13:47;;;;;;;13.88;2.80;;;31.60;59.00;;;;;;9177801;19;20464;-69
2022/08/04 09:16:58;;;;;;;10.80;2.90;;;31.70;58.70;;;;;;9177946;19;20049;-69
2022/08/04 09:20:08;;;;;;;8.95;2.78;;;31.90;58.50;;;;;;9177630;19;20023;-68
2022/08/04 09:23:29;;;;;;;11.65;2.85;;;32.00;58.10;;;;;;9179408;19;20382;-68
2022/08/04 09:26:52;;;;;;;9.73;2.67;;;32.20;57.60;;;;;;9175402;19;20018;-68
2022/08/04 09:30:07;;;;;;;7.68;2.55;;;32.40;57.50;;;;;;9177033;19;20649;-67
2022/08/04 09:33:26;;;;;;;9.80;2.65;;;32.40;57.20;;;;;;9176639;19;20021;-67
2022/08/04 09:36:59;;;;;;;13.52;3.28;;;32.50;56.90;;;;;;9184106;19;20034;-68
2022/08/04 09:40:09;;;;;;;12.57;2.95;;;32.60;56.70;;;;;;9178923;19;20022;-67
2022/08/04 09:43:38;;;;;;;;;;;32.60;56.60;;;;;;9174319;19;20561;-69
2022/08/04 09:47:15;;;;;;;17.63;3.00;;;32.70;57.00;;;;;;9180334;19;20340;-68
2022/08/04 09:50:34;;;;;;;26.00;3.80;;;32.70;56.50;;;;;;9182052;19;20019;-67
2022/08/04 09:53:54;;;;;;;15.05;3.00;;;32.70;56.10;;;;;;9181626;19;20036;-67
2022/08/04 09:57:09;;;;;;;12.20;2.15;;;32.70;55.90;;;;;;9179486;19;20021;-69
2022/08/04 10:00:19;;;;;;;6.63;2.45;;;32.70;55.80;;;;;;9179576;19;20015;-67
2022/08/04 10:03:54;;;;;;;5.15;1.98;;;32.70;55.70;;;;;;9180766;19;20018;-68
2022/08/04 10:07:20;;;;;;;7.78;2.08;;;32.70;55.80;;;;;;9177723;19;20018;-67
2022/08/04 10:10:37;;;;;;;8.95;2.20;;;32.80;55.60;;;;;;9176542;19;20038;-68
2022/08/04 10:13:53;;;;;;;9.13;2.30;;;32.90;55.40;;;;;;9181183;19;20018;-69
2022/08/04 10:17:13;;;;;;;6.30;2.28;;;33.00;55.20;;;;;;9177843;19;20021;-68
2022/08/04 10:20:34;;;;;;;7.80;2.25;;;33.10;55.10;;;;;;9181961;19;20021;-69
2022/08/04 10:24:11;;;;;;;6.50;2.30;;;33.30;54.80;;;;;;9177659;19;20026;-68
2022/08/04 10:27:27;;;;;;;13.27;2.35;;;33.50;54.60;;;;;;9184715;19;20022;-69
2022/08/04 10:30:37;;;;;;;10.43;2.60;;;33.70;54.50;;;;;;9181510;19;20031;-69
2022/08/04 10:33:52;;;;;;;8.52;2.08;;;33.90;54.30;;;;;;9182236;19;20010;-69
2022/08/04 10:37:05;;;;;;;10.93;2.00;;;34.10;54.00;;;;;;9185107;19;20456;-68
2022/08/04 10:43:46;;;;;;;10.50;2.25;;;34.40;53.60;;;;;;9181424;19;20023;-68
2022/08/04 10:46:55;;;;;;;7.70;2.88;;;34.60;53.40;;;;;;9184276;19;20014;-67
2022/08/04 10:50:05;;;;;;;8.27;2.33;;;34.70;53.20;;;;;;9182485;19;20018;-69
2022/08/04 10:53:20;;;;;;;14.05;2.60;;;34.90;52.90;;;;;;9183980;19;20018;-68
2022/08/04 10:56:33;;;;;;;17.10;4.50;;;35.10;52.70;;;;;;9183992;19;20014;-68
2022/08/04 10:59:44;;;;;;;8.48;2.47;;;35.20;52.50;;;;;;9182323;19;20048;-69
2022/08/04 11:02:55;;;;;;;8.73;2.58;;;35.40;52.40;;;;;;9177693;19;20018;-70
2022/08/04 11:06:05;;;;;;;10.10;2.38;;;35.50;52.20;;;;;;9172269;19;20025;-69
2022/08/04 11:09:11;;;;;;;12.32;2.45;;;35.60;52.00;;;;;;9169907;19;20019;-68
2022/08/04 11:12:30;;;;;;;11.13;2.50;;;35.70;51.90;;;;;;9171260;19;20360;-68
2022/08/04 11:15:41;;;;;;;3.75;2.05;;;35.80;51.50;;;;;;9170646;19;20021;-68
2022/08/04 11:18:55;;;;;;;9.98;2.72;;;35.80;51.40;;;;;;9172677;19;20060;-67
2022/08/04 11:22:12;;;;;;;8.50;2.58;;;35.80;51.20;;;;;;9175329;19;20029;-69
2022/08/04 11:25:22;;;;;;;7.65;2.90;;;35.80;51.00;;;;;;9171472;19;20022;-68
2022/08/04 11:28:40;;;;;;;11.18;2.70;;;35.80;50.90;;;;;;9177275;19;20047;-68
2022/08/04 11:31:50;;;;;;;8.02;2.25;;;35.80;50.70;;;;;;9179435;19;20082;-69
2022/08/04 11:35:04;;;;;;;7.43;2.80;;;35.70;50.80;;;;;;9176944;19;20110;-69
2022/08/04 11:38:21;;;;;;;9.90;3.08;;;35.60;50.80;;;;;;9177185;19;20019;-69
2022/08/04 11:41:49;;;;;;;10.07;2.60;;;35.50;51.00;;;;;;9171927;19;20022;-67
2022/08/04 11:45:03;;;;;;;14.73;3.47;;;35.40;51.20;;;;;;9172231;19;20014;-69
2022/08/04 11:48:14;;;;;;;7.87;2.70;;;35.20;51.90;;;;;;9170530;19;20483;-67
2022/08/04 11:51:21;;;;;;;10.32;2.85;;;35.00;51.40;;;;;;9173102;19;20565;-68
2022/08/04 11:54:39;;;;;;;20.98;3.95;;;34.80;51.40;;;;;;9179077;19;20117;-70
2022/08/04 11:57:59;;;;;;;10.38;3.47;;;34.60;52.20;;;;;;9173550;19;20010;-68
2022/08/04 12:01:17;;;;;;;9.75;3.42;;;34.30;52.70;;;;;;9174238;19;20037;-68
2022/08/04 12:04:37;;;;;;;7.85;2.20;;;34.00;53.10;;;;;;9168271;19;20026;-68
2022/08/04 12:07:57;;;;;;;8.15;2.35;;;33.60;53.60;;;;;;9172193;19;20026;-66
2022/08/04 12:11:15;;;;;;;10.52;2.67;;;33.10;53.80;;;;;;9166618;19;20044;-66
2022/08/04 12:14:29;;;;;;;8.52;2.65;;;32.70;54.00;;;;;;9171905;19;20021;-66
2022/08/04 12:17:48;;;;;;;9.18;2.45;;;32.30;54.60;;;;;;9170058;19;20019;-65
2022/08/04 12:21:01;;;;;;;11.65;2.30;;;31.90;55.00;;;;;;9173075;19;20026;-66
2022/08/04 12:24:15;;;;;;;15.45;4.13;;;31.50;55.40;;;;;;9170987;19;20048;-67
2022/08/04 12:27:29;;;;;;;13.50;3.03;;;31.20;55.90;;;;;;9170750;19;20419;-67
2022/08/04 12:30:44;;;;;;;11.95;2.90;;;30.90;56.20;;;;;;9169823;19;20640;-65
2022/08/04 12:34:09;;;;;;;14.07;3.30;;;30.60;56.80;;;;;;9172040;19;20038;-67
2022/08/04 12:37:23;;;;;;;11.85;2.67;;;30.30;57.00;;;;;;9175326;19;20355;-68
2022/08/04 12:40:32;;;;;;;13.65;2.45;;;30.10;57.50;;;;;;9174715;19;20569;-68
2022/08/04 12:43:45;;;;;;;6.70;2.58;;;29.80;57.60;;;;;;9173735;19;20015;-66
2022/08/04 12:46:51;;;;;;;11.27;3.10;;;29.60;58.10;;;;;;9174569;19;20373;-68
2022/08/04 12:49:59;;;;;;;12.82;2.90;;;29.40;58.20;;;;;;9172306;19;21082;-66
2022/08/04 12:53:14;;;;;;;8.13;2.83;;;29.20;58.60;;;;;;9170125;19;20040;-69
2022/08/04 12:56:37;;;;;;;8.63;3.10;;;29.00;59.20;;;;;;9172443;19;20449;-66
2022/08/04 12:59:46;;;;;;;6.78;2.72;;;28.70;59.20;;;;;;9170902;19;20018;-68
2022/08/04 13:03:07;;;;;;;10.82;3.70;;;28.60;59.70;;;;;;9168887;19;20479;-64
2022/08/04 13:06:17;;;;;;;6.75;3.00;;;28.30;60.00;;;;;;9167177;19;20878;-67
2022/08/04 13:09:31;;;;;;;8.63;3.23;;;28.20;60.30;;;;;;9168137;19;20026;-67
2022/08/04 13:12:38;;;;;;;9.95;2.88;;;28.00;60.60;;;;;;9175921;19;20473;-68
2022/08/04 13:15:57;;;;;;;10.85;3.40;;;27.90;60.80;;;;;;9175638;19;20630;-66
2022/08/04 13:19:03;;;;;;;8.98;3.33;;;27.70;61.40;;;;;;9172242;19;20046;-66
2022/08/04 13:22:09;;;;;;;9.70;3.75;;;27.60;61.30;;;;;;9175527;19;20026;-67
2022/08/04 13:25:16;;;;;;;8.63;3.60;;;27.50;61.60;;;;;;9172105;19;20026;-66
2022/08/04 13:28:49;;;;;;;13.25;3.90;;;27.40;61.90;;;;;;9169650;19;20368;-65
2022/08/04 13:32:01;;;;;;;13.60;3.88;;;27.40;62.50;;;;;;9169489;19;20026;-67
2022/08/04 13:35:10;;;;;;;10.30;3.83;;;27.30;62.60;;;;;;9169829;19;20014;-65
2022/08/04 13:38:27;;;;;;;13.23;3.33;;;27.20;62.80;;;;;;9171290;19;20081;-67
2022/08/04 13:41:32;;;;;;;8.50;3.70;;;27.20;62.90;;;;;;9172451;19;20026;-66
2022/08/04 13:44:39;;;;;;;9.68;3.88;;;27.10;63.10;;;;;;9172602;19;20353;-67
2022/08/04 13:47:50;;;;;;;9.43;3.47;;;27.10;63.40;;;;;;9176328;19;20025;-68
2022/08/04 13:51:05;;;;;;;12.88;3.95;;;27.00;63.80;;;;;;9177605;19;20015;-68
2022/08/04 13:54:16;;;;;;;8.23;2.97;;;27.00;64.10;;;;;;9177351;19;20621;-70
2022/08/04 13:57:29;;;;;;;6.93;2.72;;;27.00;63.90;;;;;;9176257;19;20029;-68
2022/08/04 14:00:48;;;;;;;8.63;2.70;;;27.00;63.90;;;;;;9177476;19;20866;-68
2022/08/04 14:04:01;;;;;;;9.23;2.47;;;27.00;63.90;;;;;;9174210;19;20475;-67
2022/08/04 14:07:13;;;;;;;6.05;2.33;;;27.00;63.90;;;;;;9177435;19;20014;-67
2022/08/04 14:10:25;;;;;;;6.47;3.05;;;27.00;63.80;;;;;;9172391;19;20026;-67
2022/08/04 14:13:35;;;;;;;7.18;2.58;;;27.00;63.80;;;;;;9174716;19;20023;-67
2022/08/04 14:17:02;;;;;;;5.07;2.25;;;27.00;64.00;;;;;;9175776;19;20029;-69
2022/08/04 14:20:10;;;;;;;4.43;2.17;;;27.00;64.20;;;;;;9176223;19;20496;-68
2022/08/04 14:23:18;;;;;;;9.95;2.97;;;27.00;64.10;;;;;;9175069;19;20018;-67
2022/08/04 14:26:27;;;;;;;7.00;2.33;;;27.00;64.20;;;;;;9172879;19;20018;-68
2022/08/04 14:29:40;;;;;;;5.53;2.28;;;27.00;64.30;;;;;;9175036;19;20419;-67
2022/08/04 14:32:56;;;;;;;6.95;2.20;;;27.00;64.20;;;;;;9176713;19;20386;-69
2022/08/04 14:36:05;;;;;;;5.78;2.33;;;27.10;64.40;;;;;;9177103;19;20364;-67
2022/08/04 14:39:18;;;;;;;4.78;2.10;;;27.10;64.10;;;;;;9177359;19;20646;-67
2022/08/04 14:42:41;;;;;;;2.95;1.83;;;27.20;64.00;;;;;;9175597;19;20011;-71
2022/08/04 14:45:50;;;;;;;6.00;2.00;;;27.30;63.90;;;;;;9177444;19;20014;-67
2022/08/04 14:49:08;;;;;;;5.30;1.55;;;27.30;63.70;;;;;;9174352;19;20014;-67
2022/08/04 14:52:25;;;;;;;6.05;1.83;;;27.40;63.60;;;;;;9175167;19;20100;-69
2022/08/04 14:55:32;;;;;;;6.32;1.92;;;27.50;63.50;;;;;;9176513;19;20022;-68
2022/08/04 14:58:37;;;;;;;6.68;1.45;;;27.60;63.20;;;;;;9174643;19;20022;-67
2022/08/04 15:01:44;;;;;;;7.15;1.70;;;27.70;63.70;;;;;;9174437;19;20011;-67
2022/08/04 15:05:07;;;;;;;3.28;1.60;;;27.80;62.90;;;;;;9172322;19;20352;-68
2022/08/04 15:08:35;;;;;;;5.10;1.60;;;27.90;62.70;;;;;;9172036;19;20834;-67
2022/08/04 15:11:40;;;;;;;7.82;1.90;;;28.00;62.50;;;;;;9165911;19;20018;-67
2022/08/04 15:14:47;;;;;;;4.78;1.60;;;28.10;62.30;;;;;;9174566;19;20380;-67
2022/08/04 15:17:53;;;;;;;2.80;1.25;;;28.20;62.20;;;;;;9173521;19;20041;-68
2022/08/04 15:21:02;;;;;;;5.30;1.33;;;28.20;61.80;;;;;;9176515;19;20015;-68
2022/08/04 15:24:13;;;;;;;4.40;1.08;;;28.30;61.70;;;;;;9173645;19;20026;-68
2022/08/04 15:27:20;;;;;;;4.82;1.20;;;28.40;61.60;;;;;;9174115;19;20025;-68
2022/08/04 15:30:29;;;;;;;3.47;1.10;;;28.40;61.30;;;;;;9171780;19;20348;-68
2022/08/04 15:33:35;;;;;;;2.75;1.25;;;28.40;61.10;;;;;;9174066;19;20026;-69
2022/08/04 15:36:49;;;;;;;3.25;1.45;;;28.50;60.90;;;;;;9173879;19;20480;-69
2022/08/04 15:40:13;;;;;;;4.20;1.20;;;28.50;60.80;;;;;;9173350;19;20022;-69
2022/08/04 15:43:45;;;;;;;2.42;1.15;;;28.60;60.60;;;;;;9175167;19;20491;-69
2022/08/04 15:47:14;;;;;;;1.63;1.10;;;28.60;60.50;;;;;;9173830;19;20010;-68
2022/08/04 15:50:20;;;;;;;4.53;1.63;;;28.60;60.20;;;;;;9173902;19;20365;-67
2022/08/04 15:53:34;;;;;;;7.22;1.58;;;28.60;60.00;;;;;;9170872;19;20026;-68
2022/08/04 15:57:02;;;;;;;6.85;1.80;;;28.60;59.90;;;;;;9174145;19;20372;-67
2022/08/04 16:00:10;;;;;;;5.88;1.35;;;28.60;59.70;;;;;;9172709;19;20986;-67
2022/08/04 16:03:43;;;;;;;4.88;1.30;;;28.60;59.70;;;;;;9175498;19;20135;-68
2022/08/04 16:07:07;;;;;;;4.25;2.50;;;28.60;59.40;;;;;;9168324;19;20078;-70
2022/08/04 16:10:43;;;;;;;6.00;1.80;;;28.60;59.40;;;;;;9164923;19;20029;-70
2022/08/04 16:14:09;;;;;;;6.05;1.52;;;28.50;59.20;;;;;;9175063;19;20368;-67
2022/08/04 16:17:19;;;;;;;8.68;1.60;;;28.50;59.00;;;;;;9174352;19;20568;-68
2022/08/04 16:20:25;;;;;;;4.00;1.70;;;28.50;59.00;;;;;;9172908;19;20018;-67
2022/08/04 16:23:57;;;;;;;13.50;2.08;;;28.40;58.90;;;;;;9170593;19;20022;-68
2022/08/04 16:27:11;;;;;;;3.15;1.40;;;28.40;58.70;;;;;;9169644;19;20052;-67
2022/08/04 16:30:19;;;;;;;5.65;1.35;;;28.30;58.70;;;;;;9170358;19;20019;-67
2022/08/04 16:33:29;;;;;;;4.82;1.33;;;28.30;58.60;;;;;;9173695;19;20022;-69
2022/08/04 16:37:00;;;;;;;6.40;1.13;;;28.20;58.40;;;;;;9171254;19;20477;-69
2022/08/04 16:40:31;;;;;;;4.38;1.23;;;28.20;58.30;;;;;;9171757;19;20134;-69
2022/08/04 16:43:41;;;;;;;3.88;1.40;;;28.20;58.30;;;;;;9174795;19;20038;-69
2022/08/04 16:46:49;;;;;;;3.83;1.05;;;28.10;58.40;;;;;;9171059;19;20044;-68
2022/08/04 16:50:19;;;;;;;5.32;1.48;;;28.10;58.30;;;;;;9170766;19;20112;-68
2022/08/04 16:53:30;;;;;;;5.10;1.25;;;28.00;58.20;;;;;;9170498;19;20041;-66
2022/08/04 16:56:59;;;;;;;9.30;3.45;;;28.00;58.20;;;;;;9170860;19;20031;-69
2022/08/04 17:00:06;;;;;;;5.10;1.60;;;28.00;58.20;;;;;;9168308;19;20025;-66
2022/08/04 17:03:22;;;;;;;4.80;1.58;;;28.00;58.10;;;;;;9166887;19;20023;-67
2022/08/04 17:06:36;;;;;;;2.40;1.27;;;27.90;58.00;;;;;;9166425;19;20015;-69